sensor_id;sensor_type;location;lat;lon;timestamp;temperature;humidity
21918;DHT22;11123;49.882;8.662;2022-12-20T00:02:01;2.60;99.90
21918;DHT22;11123;49.882;8.662;2022-12-20T00:05:23;2.70;99.90
21918;DHT22;11123;49.882;8.662;2022-12-20T00:08:10;2.80;99.90
21918;DHT22;11123;49.882;8.662;2022-12-20T00:10:49;3.00;99.90
21918;DHT22;11123;49.882;8.662;2022-12-20T00:13:40;3.10;99.90
21918;DHT22;11123;49.882;8.662;2022-12-20T00:16:30;3.20;99.90
21918;DHT22;11123;49.882;8.662;2022-12-20T00:19:16;3.30;99.90
21918;DHT22;11123;49.882;8.662;2022-12-20T00:22:07;3.30;99.90
21918;DHT22;11123;49.882;8.662;2022-12-20T00:24:53;3.30;99.90
21918;DHT22;11123;49.882;8.662;2022-12-20T00:27:38;3.40;99.90
21918;DHT22;11123;49.882;8.662;2022-12-20T00:30:25;3.40;99.90
21918;DHT22;11123;49.882;8.662;2022-12-20T00:33:05;3.40;99.90
21918;DHT22;11123;49.882;8.662;2022-12-20T00:35:49;3.40;99.90
21918;DHT22;11123;49.882;8.662;2022-12-20T00:38:21;3.40;99.90
21918;DHT22;11123;49.882;8.662;2022-12-20T00:40:59;3.40;99.90
21918;DHT22;11123;49.882;8.662;2022-12-20T00:43:35;3.30;99.90
21918;DHT22;11123;49.882;8.662;2022-12-20T00:46:33;3.30;99.90
21918;DHT22;11123;49.882;8.662;2022-12-20T00:49:13;3.30;99.90
21918;DHT22;11123;49.882;8.662;2022-12-20T00:51:58;3.20;99.90
21918;DHT22;11123;49.882;8.662;2022-12-20T00:55:25;3.30;99.90
21918;DHT22;11123;49.882;8.662;2022-12-20T00:58:18;3.30;99.90
21918;DHT22;11123;49.882;8.662;2022-12-20T01:05:54;3.40;99.90
21918;DHT22;11123;49.882;8.662;2022-12-20T01:08:58;3.50;99.90
21918;DHT22;11123;49.882;8.662;2022-12-20T01:12:00;3.50;99.90
21918;DHT22;11123;49.882;8.662;2022-12-20T01:15:22;3.50;99.90
21918;DHT22;11123;49.882;8.662;2022-12-20T01:18:02;3.60;99.90
21918;DHT22;11123;49.882;8.662;2022-12-20T01:20:34;3.60;99.90
21918;DHT22;11123;49.882;8.662;2022-12-20T01:23:29;3.60;99.90
21918;DHT22;11123;49.882;8.662;2022-12-20T01:26:47;3.70;99.90
21918;DHT22;11123;49.882;8.662;2022-12-20T01:29:52;3.70;99.90
21918;DHT22;11123;49.882;8.662;2022-12-20T01:37:40;3.70;99.90
21918;DHT22;11123;49.882;8.662;2022-12-20T01:40:57;3.70;99.90
21918;DHT22;11123;49.882;8.662;2022-12-20T01:47:55;3.80;99.90
21918;DHT22;11123;49.882;8.662;2022-12-20T01:51:34;3.80;99.90
21918;DHT22;11123;49.882;8.662;2022-12-20T01:54:42;3.80;99.90
21918;DHT22;11123;49.882;8.662;2022-12-20T01:58:52;3.90;99.90
21918;DHT22;11123;49.882;8.662;2022-12-20T02:07:04;4.00;99.90
21918;DHT22;11123;49.882;8.662;2022-12-20T02:10:57;3.90;99.90
21918;DHT22;11123;49.882;8.662;2022-12-20T02:14:12;3.80;99.90
21918;DHT22;11123;49.882;8.662;2022-12-20T02:17:26;3.70;99.90
21918;DHT22;11123;49.882;8.662;2022-12-20T02:21:30;3.70;99.90
21918;DHT22;11123;49.882;8.662;2022-12-20T02:32:43;3.50;99.90
21918;DHT22;11123;49.882;8.662;2022-12-20T02:36:01;3.60;99.90
21918;DHT22;11123;49.882;8.662;2022-12-20T02:39:18;3.70;99.90
21918;DHT22;11123;49.882;8.662;2022-12-20T02:45:52;3.80;99.90
21918;DHT22;11123;49.882;8.662;2022-12-20T02:49:25;3.90;99.90
21918;DHT22;11123;49.882;8.662;2022-12-20T02:53:10;3.90;99.90
21918;DHT22;11123;49.882;8.662;2022-12-20T02:57:04;4.00;99.90
21918;DHT22;11123;49.882;8.662;2022-12-20T03:00:17;3.90;99.90
21918;DHT22;11123;49.882;8.662;2022-12-20T03:04:03;3.90;99.90
21918;DHT22;11123;49.882;8.662;2022-12-20T03:07:09;3.90;99.90
21918;DHT22;11123;49.882;8.662;2022-12-20T03:10:39;3.90;99.90
21918;DHT22;11123;49.882;8.662;2022-12-20T03:14:44;3.80;99.90
21918;DHT22;11123;49.882;8.662;2022-12-20T03:18:20;3.80;99.90
21918;DHT22;11123;49.882;8.662;2022-12-20T03:22:12;3.70;99.90
21918;DHT22;11123;49.882;8.662;2022-12-20T03:26:29;3.80;99.90
21918;DHT22;11123;49.882;8.662;2022-12-20T03:30:05;3.90;99.90
21918;DHT22;11123;49.882;8.662;2022-12-20T03:34:13;3.90;99.90
21918;DHT22;11123;49.882;8.662;2022-12-20T03:38:12;3.80;99.90
21918;DHT22;11123;49.882;8.662;2022-12-20T03:41:23;3.80;99.90
21918;DHT22;11123;49.882;8.662;2022-12-20T03:44:14;3.80;99.90
21918;DHT22;11123;49.882;8.662;2022-12-20T03:46:51;3.70;99.90
21918;DHT22;11123;49.882;8.662;2022-12-20T03:50:40;3.70;99.90
21918;DHT22;11123;49.882;8.662;2022-12-20T03:53:52;3.60;99.90
21918;DHT22;11123;49.882;8.662;2022-12-20T04:01:43;3.60;99.90
21918;DHT22;11123;49.882;8.662;2022-12-20T04:06:26;3.70;99.90
21918;DHT22;11123;49.882;8.662;2022-12-20T04:10:05;3.70;99.90
21918;DHT22;11123;49.882;8.662;2022-12-20T04:13:20;3.80;99.90
21918;DHT22;11123;49.882;8.662;2022-12-20T04:17:13;3.80;99.90
21918;DHT22;11123;49.882;8.662;2022-12-20T04:20:07;3.80;99.90
21918;DHT22;11123;49.882;8.662;2022-12-20T04:23:14;3.90;99.90
21918;DHT22;11123;49.882;8.662;2022-12-20T04:36:30;4.00;99.90
21918;DHT22;11123;49.882;8.662;2022-12-20T04:40:05;4.10;99.90
21918;DHT22;11123;49.882;8.662;2022-12-20T04:43:28;4.00;99.90
21918;DHT22;11123;49.882;8.662;2022-12-20T04:46:39;4.00;99.90
21918;DHT22;11123;49.882;8.662;2022-12-20T04:49:33;4.00;99.90
21918;DHT22;11123;49.882;8.662;2022-12-20T04:52:23;4.00;99.90
21918;DHT22;11123;49.882;8.662;2022-12-20T04:56:14;4.00;99.90
21918;DHT22;11123;49.882;8.662;2022-12-20T05:04:06;4.10;99.90
21918;DHT22;11123;49.882;8.662;2022-12-20T05:06:55;4.00;99.90
21918;DHT22;11123;49.882;8.662;2022-12-20T05:13:16;4.00;99.90
21918;DHT22;11123;49.882;8.662;2022-12-20T05:16:24;4.00;99.90
21918;DHT22;11123;49.882;8.662;2022-12-20T05:20:31;3.90;99.90
21918;DHT22;11123;49.882;8.662;2022-12-20T05:36:49;3.80;99.90
21918;DHT22;11123;49.882;8.662;2022-12-20T05:40:27;3.70;99.90
21918;DHT22;11123;49.882;8.662;2022-12-20T05:43:06;3.70;99.90
21918;DHT22;11123;49.882;8.662;2022-12-20T05:46:31;3.70;99.90
21918;DHT22;11123;49.882;8.662;2022-12-20T05:49:33;3.70;99.90
21918;DHT22;11123;49.882;8.662;2022-12-20T05:53:20;3.80;99.90
21918;DHT22;11123;49.882;8.662;2022-12-20T05:56:16;3.90;99.90
21918;DHT22;11123;49.882;8.662;2022-12-20T05:59:10;4.00;99.90
21918;DHT22;11123;49.882;8.662;2022-12-20T06:02:20;3.90;99.90
21918;DHT22;11123;49.882;8.662;2022-12-20T06:05:25;4.00;99.90
21918;DHT22;11123;49.882;8.662;2022-12-20T06:08:30;3.90;99.90
21918;DHT22;11123;49.882;8.662;2022-12-20T06:11:30;3.90;99.90
21918;DHT22;11123;49.882;8.662;2022-12-20T06:14:24;3.90;99.90
21918;DHT22;11123;49.882;8.662;2022-12-20T06:17:48;4.00;99.90
21918;DHT22;11123;49.882;8.662;2022-12-20T06:20:30;4.00;99.90
21918;DHT22;11123;49.882;8.662;2022-12-20T06:23:58;4.00;99.90
21918;DHT22;11123;49.882;8.662;2022-12-20T06:26:51;4.00;99.90
21918;DHT22;11123;49.882;8.662;2022-12-20T06:30:30;3.90;99.90
21918;DHT22;11123;49.882;8.662;2022-12-20T06:34:01;3.90;99.90
21918;DHT22;11123;49.882;8.662;2022-12-20T06:36:56;3.90;99.90
21918;DHT22;11123;49.882;8.662;2022-12-20T06:44:33;3.80;99.90
21918;DHT22;11123;49.882;8.662;2022-12-20T07:01:28;3.50;99.90
21918;DHT22;11123;49.882;8.662;2022-12-20T07:04:51;3.50;99.90
21918;DHT22;11123;49.882;8.662;2022-12-20T07:07:39;3.60;99.90
21918;DHT22;11123;49.882;8.662;2022-12-20T07:10:53;3.60;99.90
21918;DHT22;11123;49.882;8.662;2022-12-20T07:13:55;3.70;99.90
21918;DHT22;11123;49.882;8.662;2022-12-20T07:17:04;3.70;99.90
21918;DHT22;11123;49.882;8.662;2022-12-20T07:28:56;3.80;99.90
21918;DHT22;11123;49.882;8.662;2022-12-20T07:32:53;3.70;99.90
21918;DHT22;11123;49.882;8.662;2022-12-20T07:35:48;3.70;99.90
21918;DHT22;11123;49.882;8.662;2022-12-20T07:38:43;3.60;99.90
21918;DHT22;11123;49.882;8.662;2022-12-20T07:51:33;3.50;99.90
21918;DHT22;11123;49.882;8.662;2022-12-20T07:54:20;3.40;99.90
21918;DHT22;11123;49.882;8.662;2022-12-20T07:57:43;3.40;99.90
21918;DHT22;11123;49.882;8.662;2022-12-20T14:37:37;5.20;99.90
21918;DHT22;11123;49.882;8.662;2022-12-20T14:40:17;5.20;99.90
21918;DHT22;11123;49.882;8.662;2022-12-20T14:42:50;5.20;99.90
21918;DHT22;11123;49.882;8.662;2022-12-20T14:45:24;5.20;99.90
21918;DHT22;11123;49.882;8.662;2022-12-20T14:48:02;5.20;99.90
21918;DHT22;11123;49.882;8.662;2022-12-20T14:50:53;5.20;99.90
21918;DHT22;11123;49.882;8.662;2022-12-20T14:57:58;5.10;99.90
21918;DHT22;11123;49.882;8.662;2022-12-20T15:01:20;5.10;99.90
21918;DHT22;11123;49.882;8.662;2022-12-20T15:27:52;5.10;99.90
21918;DHT22;11123;49.882;8.662;2022-12-20T15:32:36;5.10;99.90
21918;DHT22;11123;49.882;8.662;2022-12-20T15:36:29;5.10;99.90
21918;DHT22;11123;49.882;8.662;2022-12-20T15:40:17;5.20;99.90
21918;DHT22;11123;49.882;8.662;2022-12-20T15:48:22;5.20;99.90
21918;DHT22;11123;49.882;8.662;2022-12-20T15:52:15;5.20;99.90
21918;DHT22;11123;49.882;8.662;2022-12-20T16:04:09;5.00;99.90
21918;DHT22;11123;49.882;8.662;2022-12-20T16:07:43;4.90;99.90
21918;DHT22;11123;49.882;8.662;2022-12-20T16:15:11;4.80;99.90
21918;DHT22;11123;49.882;8.662;2022-12-20T16:19:56;4.80;99.90
21918;DHT22;11123;49.882;8.662;2022-12-20T16:28:26;4.80;99.90
21918;DHT22;11123;49.882;8.662;2022-12-20T16:32:09;4.80;99.90
21918;DHT22;11123;49.882;8.662;2022-12-20T16:36:14;4.70;99.90
21918;DHT22;11123;49.882;8.662;2022-12-20T16:52:20;4.80;99.90
21918;DHT22;11123;49.882;8.662;2022-12-20T16:56:48;4.80;99.90
21918;DHT22;11123;49.882;8.662;2022-12-20T17:01:27;4.90;99.90
21918;DHT22;11123;49.882;8.662;2022-12-20T17:06:04;4.80;99.90
21918;DHT22;11123;49.882;8.662;2022-12-20T17:10:29;4.60;99.90
21918;DHT22;11123;49.882;8.662;2022-12-20T17:14:17;4.40;99.90
21918;DHT22;11123;49.882;8.662;2022-12-20T17:17:47;4.30;99.90
21918;DHT22;11123;49.882;8.662;2022-12-20T17:21:17;4.20;99.90
21918;DHT22;11123;49.882;8.662;2022-12-20T17:25:25;4.10;99.90
21918;DHT22;11123;49.882;8.662;2022-12-20T17:28:18;4.10;99.90
21918;DHT22;11123;49.882;8.662;2022-12-20T17:36:23;4.00;99.90
21918;DHT22;11123;49.882;8.662;2022-12-20T19:31:21;4.00;99.90
21918;DHT22;11123;49.882;8.662;2022-12-20T19:40:37;4.30;99.90
21918;DHT22;11123;49.882;8.662;2022-12-20T20:10:11;4.60;99.90
21918;DHT22;11123;49.882;8.662;2022-12-20T20:18:57;4.70;99.90
21918;DHT22;11123;49.882;8.662;2022-12-20T20:30:12;4.80;99.90
21918;DHT22;11123;49.882;8.662;2022-12-20T20:56:10;4.60;99.90
21918;DHT22;11123;49.882;8.662;2022-12-20T21:02:16;4.50;99.90
21918;DHT22;11123;49.882;8.662;2022-12-20T21:05:51;4.50;99.90
21918;DHT22;11123;49.882;8.662;2022-12-20T21:09:57;4.50;99.90
21918;DHT22;11123;49.882;8.662;2022-12-20T21:13:40;4.60;99.90
21918;DHT22;11123;49.882;8.662;2022-12-20T21:17:52;4.80;99.90
21918;DHT22;11123;49.882;8.662;2022-12-20T21:31:07;5.10;99.90
21918;DHT22;11123;49.882;8.662;2022-12-20T21:35:17;5.20;99.90
21918;DHT22;11123;49.882;8.662;2022-12-20T21:42:32;5.30;99.90
21918;DHT22;11123;49.882;8.662;2022-12-20T21:54:29;5.30;99.90
21918;DHT22;11123;49.882;8.662;2022-12-20T22:02:22;5.20;99.90
21918;DHT22;11123;49.882;8.662;2022-12-20T22:13:36;5.20;99.90
21918;DHT22;11123;49.882;8.662;2022-12-20T22:17:33;5.20;99.90
21918;DHT22;11123;49.882;8.662;2022-12-20T22:31:32;5.10;99.90
21918;DHT22;11123;49.882;8.662;2022-12-20T23:04:29;5.00;99.90
21918;DHT22;11123;49.882;8.662;2022-12-20T23:18:25;5.00;99.90
21918;DHT22;11123;49.882;8.662;2022-12-20T23:22:45;5.10;99.90
21918;DHT22;11123;49.882;8.662;2022-12-20T23:43:36;5.40;99.90
